KBGE/BGE METAR and TAF weather

Enter ICAO airport designator
Station Type Date Time Source
KBGE METAR 2020/04/05 15:35 UTC NOAA

KBGE 051535Z AUTO 01004KT 10SM SCT090 BKN120 22/17 A3005 RMK AO2 T02180165


Station Type Date Time Source
KBGE Decoded METAR 2020/04/05 15:35 UTC NOAA

Bainbridge, Decatur County Industrial Air Park Airport, GA, United States (KBGE) 30-58N 084-38W
Apr 05, 2020 - 11:35 AM EDT / 2020.04.05 1535 UTC
Wind: from the N (010 degrees) at 5 MPH (4 KT):0
Visibility: 10 mile(s):0
Sky conditions: mostly cloudy
Temperature: 71.2 F (21.8 C)
Dew Point: 61.7 F (16.5 C)
Relative Humidity: 71%
Pressure (altimeter): 30.05 in. Hg (1017 hPa)
ob: KBGE 051535Z AUTO 01004KT 10SM SCT090 BKN120 22/17 A3005 RMK AO2 T02180165
cycle: 15

Station Type Date Time Source
KBGE TAF UTC NOAA

Error!

Example: see airport list